sensor_id;sensor_type;location;lat;lon;timestamp;P1;durP1;ratioP1;P2;durP2;ratioP2
72785;SDS011;60902;53.876;10.674;2023-03-13T00:00:08;14.47;;;5.60;;
72785;SDS011;60902;53.876;10.674;2023-03-13T00:00:20;16.50;;;5.72;;
72785;SDS011;60902;53.876;10.674;2023-03-13T00:00:31;16.13;;;5.75;;
72785;SDS011;60902;53.876;10.674;2023-03-13T00:00:42;15.55;;;5.60;;
72785;SDS011;60902;53.876;10.674;2023-03-13T00:00:54;14.30;;;5.57;;
72785;SDS011;60902;53.876;10.674;2023-03-13T00:01:09;12.93;;;5.22;;
72785;SDS011;60902;53.876;10.674;2023-03-13T00:01:23;13.18;;;5.07;;
72785;SDS011;60902;53.876;10.674;2023-03-13T00:01:36;15.13;;;5.47;;
72785;SDS011;60902;53.876;10.674;2023-03-13T00:01:49;16.35;;;5.43;;
72785;SDS011;60902;53.876;10.674;2023-03-13T00:02:00;16.45;;;5.03;;
72785;SDS011;60902;53.876;10.674;2023-03-13T00:02:11;15.73;;;5.03;;
72785;SDS011;60902;53.876;10.674;2023-03-13T00:02:23;14.98;;;5.22;;
72785;SDS011;60902;53.876;10.674;2023-03-13T00:02:34;14.43;;;5.53;;
72785;SDS011;60902;53.876;10.674;2023-03-13T00:02:45;16.00;;;6.00;;
72785;SDS011;60902;53.876;10.674;2023-03-13T00:02:56;15.70;;;6.03;;
72785;SDS011;60902;53.876;10.674;2023-03-13T00:03:07;15.35;;;5.82;;
72785;SDS011;60902;53.876;10.674;2023-03-13T00:03:18;14.57;;;5.27;;
72785;SDS011;60902;53.876;10.674;2023-03-13T00:03:29;14.25;;;5.40;;
72785;SDS011;60902;53.876;10.674;2023-03-13T00:03:41;15.52;;;5.50;;
72785;SDS011;60902;53.876;10.674;2023-03-13T00:03:52;15.70;;;5.37;;
72785;SDS011;60902;53.876;10.674;2023-03-13T00:04:04;16.25;;;5.20;;
72785;SDS011;60902;53.876;10.674;2023-03-13T00:04:15;16.42;;;5.47;;
72785;SDS011;60902;53.876;10.674;2023-03-13T00:04:26;15.07;;;5.90;;
72785;SDS011;60902;53.876;10.674;2023-03-13T00:04:37;14.95;;;5.72;;
72785;SDS011;60902;53.876;10.674;2023-03-13T00:04:48;14.88;;;5.50;;
72785;SDS011;60902;53.876;10.674;2023-03-13T00:05:00;15.82;;;5.53;;
72785;SDS011;60902;53.876;10.674;2023-03-13T00:05:12;16.30;;;5.90;;
72785;SDS011;60902;53.876;10.674;2023-03-13T00:05:23;15.35;;;5.78;;
72785;SDS011;60902;53.876;10.674;2023-03-13T00:05:34;15.30;;;5.72;;
72785;SDS011;60902;53.876;10.674;2023-03-13T00:05:47;15.40;;;5.60;;
72785;SDS011;60902;53.876;10.674;2023-03-13T00:05:58;14.30;;;4.95;;
72785;SDS011;60902;53.876;10.674;2023-03-13T00:06:09;14.52;;;5.07;;
72785;SDS011;60902;53.876;10.674;2023-03-13T00:06:21;14.73;;;5.40;;
72785;SDS011;60902;53.876;10.674;2023-03-13T00:06:33;15.05;;;5.00;;
72785;SDS011;60902;53.876;10.674;2023-03-13T00:06:49;13.80;;;4.78;;
72785;SDS011;60902;53.876;10.674;2023-03-13T00:07:00;13.27;;;5.00;;
72785;SDS011;60902;53.876;10.674;2023-03-13T00:07:11;13.02;;;5.13;;
72785;SDS011;60902;53.876;10.674;2023-03-13T00:07:22;13.50;;;5.22;;
72785;SDS011;60902;53.876;10.674;2023-03-13T00:07:33;13.80;;;5.18;;
72785;SDS011;60902;53.876;10.674;2023-03-13T00:07:44;14.77;;;5.20;;
72785;SDS011;60902;53.876;10.674;2023-03-13T00:07:55;13.82;;;4.85;;
72785;SDS011;60902;53.876;10.674;2023-03-13T00:08:07;14.35;;;5.03;;
72785;SDS011;60902;53.876;10.674;2023-03-13T00:08:18;16.60;;;5.53;;
72785;SDS011;60902;53.876;10.674;2023-03-13T00:08:29;16.77;;;6.00;;
72785;SDS011;60902;53.876;10.674;2023-03-13T00:08:41;15.52;;;5.90;;
72785;SDS011;60902;53.876;10.674;2023-03-13T00:08:52;14.18;;;6.03;;
72785;SDS011;60902;53.876;10.674;2023-03-13T00:09:04;13.02;;;5.82;;
72785;SDS011;60902;53.876;10.674;2023-03-13T00:09:18;12.65;;;5.38;;
72785;SDS011;60902;53.876;10.674;2023-03-13T00:09:29;13.45;;;5.13;;
72785;SDS011;60902;53.876;10.674;2023-03-13T00:09:40;14.52;;;5.22;;
72785;SDS011;60902;53.876;10.674;2023-03-13T00:09:51;15.00;;;5.43;;
72785;SDS011;60902;53.876;10.674;2023-03-13T00:10:02;13.68;;;5.57;;
72785;SDS011;60902;53.876;10.674;2023-03-13T00:10:13;13.88;;;5.40;;
72785;SDS011;60902;53.876;10.674;2023-03-13T00:10:24;15.00;;;5.25;;
72785;SDS011;60902;53.876;10.674;2023-03-13T00:10:36;16.17;;;5.28;;
72785;SDS011;60902;53.876;10.674;2023-03-13T00:10:47;16.33;;;5.40;;
72785;SDS011;60902;53.876;10.674;2023-03-13T00:11:01;14.77;;;5.20;;
72785;SDS011;60902;53.876;10.674;2023-03-13T00:11:13;14.35;;;5.07;;
72785;SDS011;60902;53.876;10.674;2023-03-13T00:11:24;14.73;;;5.18;;
72785;SDS011;60902;53.876;10.674;2023-03-13T00:11:36;15.32;;;5.30;;
72785;SDS011;60902;53.876;10.674;2023-03-13T00:11:47;14.82;;;5.57;;
72785;SDS011;60902;53.876;10.674;2023-03-13T00:11:58;14.07;;;5.23;;
72785;SDS011;60902;53.876;10.674;2023-03-13T00:12:08;16.02;;;5.60;;
72785;SDS011;60902;53.876;10.674;2023-03-13T00:12:23;16.92;;;5.57;;
72785;SDS011;60902;53.876;10.674;2023-03-13T00:12:34;16.00;;;5.82;;
72785;SDS011;60902;53.876;10.674;2023-03-13T00:12:45;15.48;;;6.07;;
72785;SDS011;60902;53.876;10.674;2023-03-13T00:12:56;14.43;;;5.75;;
72785;SDS011;60902;53.876;10.674;2023-03-13T00:13:07;13.60;;;5.40;;
72785;SDS011;60902;53.876;10.674;2023-03-13T00:13:18;13.10;;;5.22;;
72785;SDS011;60902;53.876;10.674;2023-03-13T00:13:29;14.52;;;5.13;;
72785;SDS011;60902;53.876;10.674;2023-03-13T00:13:40;14.20;;;6.15;;
72785;SDS011;60902;53.876;10.674;2023-03-13T00:13:53;15.38;;;7.05;;
72785;SDS011;60902;53.876;10.674;2023-03-13T00:14:04;14.82;;;7.43;;
72785;SDS011;60902;53.876;10.674;2023-03-13T00:14:17;15.70;;;6.03;;
72785;SDS011;60902;53.876;10.674;2023-03-13T00:14:28;15.18;;;5.53;;
72785;SDS011;60902;53.876;10.674;2023-03-13T00:14:39;14.03;;;5.47;;
72785;SDS011;60902;53.876;10.674;2023-03-13T00:14:50;15.57;;;5.25;;
72785;SDS011;60902;53.876;10.674;2023-03-13T00:15:01;16.95;;;4.97;;
72785;SDS011;60902;53.876;10.674;2023-03-13T00:15:11;17.55;;;5.05;;
72785;SDS011;60902;53.876;10.674;2023-03-13T00:15:22;16.05;;;5.70;;
72785;SDS011;60902;53.876;10.674;2023-03-13T00:15:33;14.90;;;5.93;;
72785;SDS011;60902;53.876;10.674;2023-03-13T00:15:45;13.05;;;5.47;;
72785;SDS011;60902;53.876;10.674;2023-03-13T00:15:59;11.20;;;5.07;;
72785;SDS011;60902;53.876;10.674;2023-03-13T00:16:11;13.38;;;5.07;;
72785;SDS011;60902;53.876;10.674;2023-03-13T00:16:23;15.07;;;5.20;;
72785;SDS011;60902;53.876;10.674;2023-03-13T00:16:34;15.35;;;5.30;;
72785;SDS011;60902;53.876;10.674;2023-03-13T00:16:46;14.90;;;5.32;;
72785;SDS011;60902;53.876;10.674;2023-03-13T00:16:58;15.45;;;5.38;;
72785;SDS011;60902;53.876;10.674;2023-03-13T00:17:12;13.55;;;5.15;;
72785;SDS011;60902;53.876;10.674;2023-03-13T00:17:23;12.87;;;5.10;;
72785;SDS011;60902;53.876;10.674;2023-03-13T00:17:34;14.48;;;5.55;;
72785;SDS011;60902;53.876;10.674;2023-03-13T00:17:45;14.57;;;5.63;;
72785;SDS011;60902;53.876;10.674;2023-03-13T00:17:56;15.23;;;5.82;;
72785;SDS011;60902;53.876;10.674;2023-03-13T00:18:07;13.40;;;5.50;;
72785;SDS011;60902;53.876;10.674;2023-03-13T00:18:17;14.20;;;5.33;;
72785;SDS011;60902;53.876;10.674;2023-03-13T00:18:28;14.38;;;5.10;;
72785;SDS011;60902;53.876;10.674;2023-03-13T00:18:44;15.55;;;5.30;;
72785;SDS011;60902;53.876;10.674;2023-03-13T00:18:57;15.32;;;5.50;;
72785;SDS011;60902;53.876;10.674;2023-03-13T00:19:08;14.30;;;5.43;;
72785;SDS011;60902;53.876;10.674;2023-03-13T00:19:20;15.57;;;5.80;;
72785;SDS011;60902;53.876;10.674;2023-03-13T00:19:31;15.07;;;5.70;;
72785;SDS011;60902;53.876;10.674;2023-03-13T00:19:44;14.80;;;5.50;;
72785;SDS011;60902;53.876;10.674;2023-03-13T00:19:55;14.20;;;5.28;;
72785;SDS011;60902;53.876;10.674;2023-03-13T00:20:06;13.55;;;5.38;;
72785;SDS011;60902;53.876;10.674;2023-03-13T00:20:19;12.93;;;5.45;;
72785;SDS011;60902;53.876;10.674;2023-03-13T00:20:30;12.85;;;5.10;;
72785;SDS011;60902;53.876;10.674;2023-03-13T00:20:41;15.50;;;5.15;;
72785;SDS011;60902;53.876;10.674;2023-03-13T00:20:58;15.90;;;5.30;;
72785;SDS011;60902;53.876;10.674;2023-03-13T00:21:09;13.68;;;5.57;;
72785;SDS011;60902;53.876;10.674;2023-03-13T00:21:20;14.55;;;5.32;;
72785;SDS011;60902;53.876;10.674;2023-03-13T00:21:34;14.73;;;5.03;;
72785;SDS011;60902;53.876;10.674;2023-03-13T00:21:46;14.63;;;5.50;;
72785;SDS011;60902;53.876;10.674;2023-03-13T00:21:58;13.15;;;5.47;;
72785;SDS011;60902;53.876;10.674;2023-03-13T00:22:09;12.30;;;5.22;;
72785;SDS011;60902;53.876;10.674;2023-03-13T00:22:19;13.25;;;5.10;;
72785;SDS011;60902;53.876;10.674;2023-03-13T00:22:30;13.80;;;5.37;;
72785;SDS011;60902;53.876;10.674;2023-03-13T00:22:41;15.57;;;5.65;;
72785;SDS011;60902;53.876;10.674;2023-03-13T00:22:52;16.30;;;5.57;;
72785;SDS011;60902;53.876;10.674;2023-03-13T00:23:03;15.52;;;5.18;;
72785;SDS011;60902;53.876;10.674;2023-03-13T00:23:15;13.95;;;5.18;;
72785;SDS011;60902;53.876;10.674;2023-03-13T00:23:27;12.98;;;5.28;;
72785;SDS011;60902;53.876;10.674;2023-03-13T00:23:38;13.98;;;5.45;;
72785;SDS011;60902;53.876;10.674;2023-03-13T00:23:50;15.45;;;5.70;;
72785;SDS011;60902;53.876;10.674;2023-03-13T00:24:01;14.95;;;5.53;;
72785;SDS011;60902;53.876;10.674;2023-03-13T00:24:13;14.80;;;5.20;;
72785;SDS011;60902;53.876;10.674;2023-03-13T00:24:24;13.60;;;4.97;;
72785;SDS011;60902;53.876;10.674;2023-03-13T00:24:36;14.02;;;5.20;;
72785;SDS011;60902;53.876;10.674;2023-03-13T00:24:47;13.65;;;5.38;;
72785;SDS011;60902;53.876;10.674;2023-03-13T00:24:58;13.80;;;5.82;;
72785;SDS011;60902;53.876;10.674;2023-03-13T00:25:09;14.38;;;5.78;;
72785;SDS011;60902;53.876;10.674;2023-03-13T00:25:20;14.45;;;5.55;;
72785;SDS011;60902;53.876;10.674;2023-03-13T00:25:32;15.07;;;5.30;;
72785;SDS011;60902;53.876;10.674;2023-03-13T00:25:44;14.57;;;5.32;;
72785;SDS011;60902;53.876;10.674;2023-03-13T00:25:55;14.68;;;5.60;;
72785;SDS011;60902;53.876;10.674;2023-03-13T00:26:08;14.13;;;5.50;;
72785;SDS011;60902;53.876;10.674;2023-03-13T00:26:22;14.05;;;5.03;;
72785;SDS011;60902;53.876;10.674;2023-03-13T00:26:34;14.55;;;5.20;;
72785;SDS011;60902;53.876;10.674;2023-03-13T00:26:45;14.80;;;5.18;;
72785;SDS011;60902;53.876;10.674;2023-03-13T00:26:56;15.35;;;5.20;;
72785;SDS011;60902;53.876;10.674;2023-03-13T00:27:12;15.50;;;5.30;;
72785;SDS011;60902;53.876;10.674;2023-03-13T00:27:23;15.57;;;5.15;;
72785;SDS011;60902;53.876;10.674;2023-03-13T00:27:34;14.60;;;5.05;;
72785;SDS011;60902;53.876;10.674;2023-03-13T00:27:46;13.95;;;5.28;;
72785;SDS011;60902;53.876;10.674;2023-03-13T00:27:58;14.93;;;5.88;;
72785;SDS011;60902;53.876;10.674;2023-03-13T00:28:09;15.82;;;6.00;;
72785;SDS011;60902;53.876;10.674;2023-03-13T00:28:20;16.35;;;5.72;;
72785;SDS011;60902;53.876;10.674;2023-03-13T00:28:33;14.70;;;5.47;;
72785;SDS011;60902;53.876;10.674;2023-03-13T00:28:45;14.85;;;5.15;;
72785;SDS011;60902;53.876;10.674;2023-03-13T00:28:58;16.38;;;5.50;;
72785;SDS011;60902;53.876;10.674;2023-03-13T00:29:09;16.33;;;5.95;;
72785;SDS011;60902;53.876;10.674;2023-03-13T00:29:20;14.93;;;6.23;;
72785;SDS011;60902;53.876;10.674;2023-03-13T00:29:32;13.80;;;5.80;;
72785;SDS011;60902;53.876;10.674;2023-03-13T00:29:43;12.80;;;5.28;;
72785;SDS011;60902;53.876;10.674;2023-03-13T00:29:54;12.57;;;5.20;;
72785;SDS011;60902;53.876;10.674;2023-03-13T00:30:06;12.25;;;5.40;;
72785;SDS011;60902;53.876;10.674;2023-03-13T00:30:18;14.65;;;5.78;;
72785;SDS011;60902;53.876;10.674;2023-03-13T00:30:31;14.45;;;6.07;;
72785;SDS011;60902;53.876;10.674;2023-03-13T00:30:42;12.98;;;5.38;;
72785;SDS011;60902;53.876;10.674;2023-03-13T00:30:59;12.02;;;5.00;;
72785;SDS011;60902;53.876;10.674;2023-03-13T00:31:11;13.85;;;5.55;;
72785;SDS011;60902;53.876;10.674;2023-03-13T00:31:24;14.30;;;5.85;;
72785;SDS011;60902;53.876;10.674;2023-03-13T00:31:36;14.73;;;5.60;;
72785;SDS011;60902;53.876;10.674;2023-03-13T00:31:49;14.38;;;5.20;;
72785;SDS011;60902;53.876;10.674;2023-03-13T00:32:00;13.73;;;5.45;;
72785;SDS011;60902;53.876;10.674;2023-03-13T00:32:11;14.82;;;5.70;;
72785;SDS011;60902;53.876;10.674;2023-03-13T00:32:22;15.43;;;6.00;;
72785;SDS011;60902;53.876;10.674;2023-03-13T00:32:33;14.85;;;5.60;;
72785;SDS011;60902;53.876;10.674;2023-03-13T00:32:50;14.77;;;5.40;;
72785;SDS011;60902;53.876;10.674;2023-03-13T00:33:02;14.65;;;5.60;;
72785;SDS011;60902;53.876;10.674;2023-03-13T00:33:13;14.80;;;5.28;;
72785;SDS011;60902;53.876;10.674;2023-03-13T00:33:24;14.98;;;5.40;;
72785;SDS011;60902;53.876;10.674;2023-03-13T00:33:36;14.80;;;5.30;;
72785;SDS011;60902;53.876;10.674;2023-03-13T00:33:50;13.77;;;5.40;;
72785;SDS011;60902;53.876;10.674;2023-03-13T00:34:02;12.07;;;5.43;;
72785;SDS011;60902;53.876;10.674;2023-03-13T00:34:13;12.40;;;5.40;;
72785;SDS011;60902;53.876;10.674;2023-03-13T00:34:24;13.45;;;5.45;;
72785;SDS011;60902;53.876;10.674;2023-03-13T00:34:36;13.87;;;5.43;;
72785;SDS011;60902;53.876;10.674;2023-03-13T00:34:47;14.57;;;5.32;;
72785;SDS011;60902;53.876;10.674;2023-03-13T00:34:58;13.73;;;5.17;;
72785;SDS011;60902;53.876;10.674;2023-03-13T00:35:11;15.45;;;5.57;;
72785;SDS011;60902;53.876;10.674;2023-03-13T00:35:22;16.23;;;5.60;;
72785;SDS011;60902;53.876;10.674;2023-03-13T00:35:33;16.58;;;5.63;;
72785;SDS011;60902;53.876;10.674;2023-03-13T00:35:44;14.63;;;4.85;;
72785;SDS011;60902;53.876;10.674;2023-03-13T00:36:00;12.75;;;4.97;;
72785;SDS011;60902;53.876;10.674;2023-03-13T00:36:13;12.23;;;5.60;;
72785;SDS011;60902;53.876;10.674;2023-03-13T00:36:30;13.70;;;5.18;;
72785;SDS011;60902;53.876;10.674;2023-03-13T00:36:43;14.82;;;5.00;;
72785;SDS011;60902;53.876;10.674;2023-03-13T00:36:54;15.38;;;5.60;;
72785;SDS011;60902;53.876;10.674;2023-03-13T00:37:05;14.05;;;5.60;;
72785;SDS011;60902;53.876;10.674;2023-03-13T00:37:16;13.95;;;6.00;;
72785;SDS011;60902;53.876;10.674;2023-03-13T00:37:27;12.32;;;5.45;;
72785;SDS011;60902;53.876;10.674;2023-03-13T00:37:41;11.85;;;5.13;;
72785;SDS011;60902;53.876;10.674;2023-03-13T00:37:52;12.90;;;4.93;;
72785;SDS011;60902;53.876;10.674;2023-03-13T00:38:03;13.13;;;5.25;;
72785;SDS011;60902;53.876;10.674;2023-03-13T00:38:14;13.80;;;5.40;;
72785;SDS011;60902;53.876;10.674;2023-03-13T00:38:26;13.68;;;5.55;;
72785;SDS011;60902;53.876;10.674;2023-03-13T00:38:38;14.38;;;5.47;;
72785;SDS011;60902;53.876;10.674;2023-03-13T00:38:49;13.77;;;5.10;;
72785;SDS011;60902;53.876;10.674;2023-03-13T00:39:01;12.52;;;4.97;;
72785;SDS011;60902;53.876;10.674;2023-03-13T00:39:13;13.52;;;5.20;;
72785;SDS011;60902;53.876;10.674;2023-03-13T00:39:24;14.70;;;5.40;;
72785;SDS011;60902;53.876;10.674;2023-03-13T00:39:36;14.30;;;5.80;;
72785;SDS011;60902;53.876;10.674;2023-03-13T00:39:47;14.35;;;5.72;;
72785;SDS011;60902;53.876;10.674;2023-03-13T00:39:58;15.55;;;5.82;;
72785;SDS011;60902;53.876;10.674;2023-03-13T00:40:10;15.60;;;5.20;;
72785;SDS011;60902;53.876;10.674;2023-03-13T00:40:21;14.65;;;5.47;;
72785;SDS011;60902;53.876;10.674;2023-03-13T00:40:32;15.05;;;5.80;;
72785;SDS011;60902;53.876;10.674;2023-03-13T00:40:43;14.63;;;5.78;;
72785;SDS011;60902;53.876;10.674;2023-03-13T00:40:58;15.93;;;5.65;;
72785;SDS011;60902;53.876;10.674;2023-03-13T00:41:12;15.75;;;5.50;;
72785;SDS011;60902;53.876;10.674;2023-03-13T00:41:25;15.32;;;5.28;;
72785;SDS011;60902;53.876;10.674;2023-03-13T00:41:39;14.02;;;5.45;;
72785;SDS011;60902;53.876;10.674;2023-03-13T00:41:50;12.77;;;5.40;;
72785;SDS011;60902;53.876;10.674;2023-03-13T00:42:01;12.20;;;5.20;;
72785;SDS011;60902;53.876;10.674;2023-03-13T00:42:13;12.10;;;4.88;;
72785;SDS011;60902;53.876;10.674;2023-03-13T00:42:24;13.35;;;5.43;;
72785;SDS011;60902;53.876;10.674;2023-03-13T00:42:36;13.57;;;5.53;;
72785;SDS011;60902;53.876;10.674;2023-03-13T00:42:47;13.23;;;5.45;;
72785;SDS011;60902;53.876;10.674;2023-03-13T00:42:58;14.30;;;5.55;;
72785;SDS011;60902;53.876;10.674;2023-03-13T00:43:09;13.80;;;5.43;;
72785;SDS011;60902;53.876;10.674;2023-03-13T00:43:20;13.40;;;5.40;;
72785;SDS011;60902;53.876;10.674;2023-03-13T00:43:31;13.38;;;5.25;;
72785;SDS011;60902;53.876;10.674;2023-03-13T00:43:43;14.02;;;5.30;;
72785;SDS011;60902;53.876;10.674;2023-03-13T00:43:56;13.30;;;5.20;;
72785;SDS011;60902;53.876;10.674;2023-03-13T00:44:07;13.77;;;5.15;;
72785;SDS011;60902;53.876;10.674;2023-03-13T00:44:18;14.30;;;5.22;;
72785;SDS011;60902;53.876;10.674;2023-03-13T00:44:29;16.05;;;5.32;;
72785;SDS011;60902;53.876;10.674;2023-03-13T00:44:42;14.77;;;4.97;;
72785;SDS011;60902;53.876;10.674;2023-03-13T00:44:53;12.98;;;4.95;;
72785;SDS011;60902;53.876;10.674;2023-03-13T00:45:05;12.02;;;4.75;;
72785;SDS011;60902;53.876;10.674;2023-03-13T00:45:17;11.65;;;4.88;;
72785;SDS011;60902;53.876;10.674;2023-03-13T00:45:28;12.82;;;5.22;;
72785;SDS011;60902;53.876;10.674;2023-03-13T00:45:39;13.60;;;5.07;;
72785;SDS011;60902;53.876;10.674;2023-03-13T00:45:50;15.25;;;5.30;;
72785;SDS011;60902;53.876;10.674;2023-03-13T00:46:01;15.15;;;5.18;;
72785;SDS011;60902;53.876;10.674;2023-03-13T00:46:13;14.38;;;5.20;;
72785;SDS011;60902;53.876;10.674;2023-03-13T00:46:26;12.70;;;4.93;;
72785;SDS011;60902;53.876;10.674;2023-03-13T00:46:39;13.70;;;5.18;;
72785;SDS011;60902;53.876;10.674;2023-03-13T00:46:50;14.68;;;5.70;;
72785;SDS011;60902;53.876;10.674;2023-03-13T00:47:01;14.10;;;5.32;;
72785;SDS011;60902;53.876;10.674;2023-03-13T00:47:14;13.95;;;4.97;;
72785;SDS011;60902;53.876;10.674;2023-03-13T00:47:25;13.50;;;4.68;;
72785;SDS011;60902;53.876;10.674;2023-03-13T00:47:36;14.80;;;5.10;;
72785;SDS011;60902;53.876;10.674;2023-03-13T00:47:47;15.52;;;5.15;;
72785;SDS011;60902;53.876;10.674;2023-03-13T00:47:59;15.02;;;5.05;;
72785;SDS011;60902;53.876;10.674;2023-03-13T00:48:10;13.20;;;4.80;;
72785;SDS011;60902;53.876;10.674;2023-03-13T00:48:22;12.63;;;4.95;;
72785;SDS011;60902;53.876;10.674;2023-03-13T00:48:55;13.30;;;4.93;;
72785;SDS011;60902;53.876;10.674;2023-03-13T00:49:06;13.57;;;4.78;;
72785;SDS011;60902;53.876;10.674;2023-03-13T00:49:18;13.50;;;5.13;;
72785;SDS011;60902;53.876;10.674;2023-03-13T00:49:29;12.88;;;5.10;;
72785;SDS011;60902;53.876;10.674;2023-03-13T00:49:42;12.85;;;5.22;;
72785;SDS011;60902;53.876;10.674;2023-03-13T00:49:53;13.57;;;5.20;;
72785;SDS011;60902;53.876;10.674;2023-03-13T00:50:05;13.85;;;5.03;;
72785;SDS011;60902;53.876;10.674;2023-03-13T00:50:16;13.75;;;4.95;;
72785;SDS011;60902;53.876;10.674;2023-03-13T00:50:28;12.68;;;5.20;;
72785;SDS011;60902;53.876;10.674;2023-03-13T00:50:39;12.27;;;5.25;;
72785;SDS011;60902;53.876;10.674;2023-03-13T00:50:51;13.30;;;5.18;;
72785;SDS011;60902;53.876;10.674;2023-03-13T00:51:04;13.32;;;4.90;;
72785;SDS011;60902;53.876;10.674;2023-03-13T00:51:17;12.77;;;4.82;;
72785;SDS011;60902;53.876;10.674;2023-03-13T00:51:29;13.40;;;4.63;;
72785;SDS011;60902;53.876;10.674;2023-03-13T00:51:40;13.20;;;4.80;;
72785;SDS011;60902;53.876;10.674;2023-03-13T00:51:51;12.10;;;5.07;;
72785;SDS011;60902;53.876;10.674;2023-03-13T00:52:02;12.60;;;5.28;;
72785;SDS011;60902;53.876;10.674;2023-03-13T00:52:14;12.82;;;5.35;;
72785;SDS011;60902;53.876;10.674;2023-03-13T00:52:25;14.70;;;5.40;;
72785;SDS011;60902;53.876;10.674;2023-03-13T00:52:38;14.52;;;5.43;;
72785;SDS011;60902;53.876;10.674;2023-03-13T00:52:49;13.52;;;5.15;;
72785;SDS011;60902;53.876;10.674;2023-03-13T00:53:00;14.85;;;5.45;;
72785;SDS011;60902;53.876;10.674;2023-03-13T00:53:12;14.57;;;5.20;;
72785;SDS011;60902;53.876;10.674;2023-03-13T00:53:23;13.90;;;5.43;;
72785;SDS011;60902;53.876;10.674;2023-03-13T00:53:34;13.65;;;5.57;;
72785;SDS011;60902;53.876;10.674;2023-03-13T00:53:46;14.43;;;5.78;;
72785;SDS011;60902;53.876;10.674;2023-03-13T00:53:59;13.93;;;5.45;;
72785;SDS011;60902;53.876;10.674;2023-03-13T00:54:10;13.50;;;5.18;;
72785;SDS011;60902;53.876;10.674;2023-03-13T00:54:21;13.20;;;4.97;;
72785;SDS011;60902;53.876;10.674;2023-03-13T00:54:32;14.45;;;5.32;;
72785;SDS011;60902;53.876;10.674;2023-03-13T00:54:44;13.45;;;5.47;;
72785;SDS011;60902;53.876;10.674;2023-03-13T00:54:55;12.55;;;5.50;;
72785;SDS011;60902;53.876;10.674;2023-03-13T00:55:08;12.77;;;5.18;;
72785;SDS011;60902;53.876;10.674;2023-03-13T00:55:19;14.27;;;5.40;;
72785;SDS011;60902;53.876;10.674;2023-03-13T00:55:30;14.43;;;5.15;;
72785;SDS011;60902;53.876;10.674;2023-03-13T00:55:50;13.25;;;4.90;;
72785;SDS011;60902;53.876;10.674;2023-03-13T00:56:02;13.10;;;4.53;;
72785;SDS011;60902;53.876;10.674;2023-03-13T00:56:16;14.05;;;4.65;;
72785;SDS011;60902;53.876;10.674;2023-03-13T00:56:28;13.88;;;4.90;;
72785;SDS011;60902;53.876;10.674;2023-03-13T00:56:40;13.00;;;4.85;;
72785;SDS011;60902;53.876;10.674;2023-03-13T00:56:52;12.88;;;4.97;;
72785;SDS011;60902;53.876;10.674;2023-03-13T00:57:03;12.73;;;5.35;;
72785;SDS011;60902;53.876;10.674;2023-03-13T00:57:14;14.23;;;5.10;;
72785;SDS011;60902;53.876;10.674;2023-03-13T00:57:26;13.63;;;5.07;;
72785;SDS011;60902;53.876;10.674;2023-03-13T00:57:38;15.07;;;5.35;;
72785;SDS011;60902;53.876;10.674;2023-03-13T00:57:49;13.65;;;5.45;;
72785;SDS011;60902;53.876;10.674;2023-03-13T00:58:00;14.57;;;5.40;;
72785;SDS011;60902;53.876;10.674;2023-03-13T00:58:11;13.95;;;5.18;;
72785;SDS011;60902;53.876;10.674;2023-03-13T00:58:23;13.55;;;5.38;;
72785;SDS011;60902;53.876;10.674;2023-03-13T00:58:37;12.90;;;5.32;;
72785;SDS011;60902;53.876;10.674;2023-03-13T00:58:51;13.88;;;5.15;;
72785;SDS011;60902;53.876;10.674;2023-03-13T00:59:02;14.52;;;5.05;;
72785;SDS011;60902;53.876;10.674;2023-03-13T00:59:13;13.88;;;5.10;;
72785;SDS011;60902;53.876;10.674;2023-03-13T00:59:24;14.63;;;5.35;;
72785;SDS011;60902;53.876;10.674;2023-03-13T00:59:35;14.68;;;5.18;;
72785;SDS011;60902;53.876;10.674;2023-03-13T00:59:46;13.15;;;4.82;;
72785;SDS011;60902;53.876;10.674;2023-03-13T00:59:57;12.15;;;4.85;;
72785;SDS011;60902;53.876;10.674;2023-03-13T01:00:10;12.63;;;5.38;;
72785;SDS011;60902;53.876;10.674;2023-03-13T01:00:22;12.20;;;5.13;;
72785;SDS011;60902;53.876;10.674;2023-03-13T01:00:33;12.40;;;4.80;;
72785;SDS011;60902;53.876;10.674;2023-03-13T01:00:44;14.15;;;4.88;;
72785;SDS011;60902;53.876;10.674;2023-03-13T01:00:55;14.90;;;5.00;;
72785;SDS011;60902;53.876;10.674;2023-03-13T01:01:07;15.50;;;5.13;;
72785;SDS011;60902;53.876;10.674;2023-03-13T01:01:20;15.40;;;4.97;;
72785;SDS011;60902;53.876;10.674;2023-03-13T01:01:33;14.32;;;4.85;;
72785;SDS011;60902;53.876;10.674;2023-03-13T01:01:45;13.13;;;4.88;;
72785;SDS011;60902;53.876;10.674;2023-03-13T01:01:57;11.77;;;5.00;;
72785;SDS011;60902;53.876;10.674;2023-03-13T01:02:09;13.02;;;5.15;;
72785;SDS011;60902;53.876;10.674;2023-03-13T01:02:20;12.93;;;5.43;;
72785;SDS011;60902;53.876;10.674;2023-03-13T01:02:31;13.32;;;5.10;;
72785;SDS011;60902;53.876;10.674;2023-03-13T01:02:42;13.63;;;5.10;;
72785;SDS011;60902;53.876;10.674;2023-03-13T01:02:53;13.65;;;4.97;;
72785;SDS011;60902;53.876;10.674;2023-03-13T01:03:04;12.55;;;4.90;;
72785;SDS011;60902;53.876;10.674;2023-03-13T01:03:17;12.32;;;4.97;;
72785;SDS011;60902;53.876;10.674;2023-03-13T01:03:29;13.45;;;5.40;;
72785;SDS011;60902;53.876;10.674;2023-03-13T01:03:41;13.57;;;5.53;;
72785;SDS011;60902;53.876;10.674;2023-03-13T01:03:54;13.55;;;5.20;;
72785;SDS011;60902;53.876;10.674;2023-03-13T01:04:07;12.95;;;4.85;;
72785;SDS011;60902;53.876;10.674;2023-03-13T01:04:20;12.13;;;4.75;;
72785;SDS011;60902;53.876;10.674;2023-03-13T01:04:31;14.02;;;5.18;;
72785;SDS011;60902;53.876;10.674;2023-03-13T01:04:43;15.77;;;5.20;;
72785;SDS011;60902;53.876;10.674;2023-03-13T01:04:54;14.88;;;5.00;;
72785;SDS011;60902;53.876;10.674;2023-03-13T01:05:06;12.73;;;4.50;;
72785;SDS011;60902;53.876;10.674;2023-03-13T01:05:18;14.23;;;4.70;;
72785;SDS011;60902;53.876;10.674;2023-03-13T01:05:29;14.25;;;4.97;;
72785;SDS011;60902;53.876;10.674;2023-03-13T01:05:40;12.63;;;5.00;;
72785;SDS011;60902;53.876;10.674;2023-03-13T01:05:55;12.40;;;4.82;;
72785;SDS011;60902;53.876;10.674;2023-03-13T01:06:09;12.57;;;4.82;;
72785;SDS011;60902;53.876;10.674;2023-03-13T01:06:23;12.90;;;4.80;;
72785;SDS011;60902;53.876;10.674;2023-03-13T01:06:37;12.98;;;4.97;;
72785;SDS011;60902;53.876;10.674;2023-03-13T01:06:49;13.05;;;5.28;;
72785;SDS011;60902;53.876;10.674;2023-03-13T01:07:00;13.55;;;5.38;;
72785;SDS011;60902;53.876;10.674;2023-03-13T01:07:12;12.32;;;5.05;;
72785;SDS011;60902;53.876;10.674;2023-03-13T01:07:23;12.20;;;4.63;;
72785;SDS011;60902;53.876;10.674;2023-03-13T01:07:36;12.45;;;4.50;;
72785;SDS011;60902;53.876;10.674;2023-03-13T01:07:47;13.77;;;4.82;;
72785;SDS011;60902;53.876;10.674;2023-03-13T01:08:00;14.50;;;5.00;;
72785;SDS011;60902;53.876;10.674;2023-03-13T01:08:11;13.32;;;4.80;;
72785;SDS011;60902;53.876;10.674;2023-03-13T01:08:22;12.75;;;4.65;;
72785;SDS011;60902;53.876;10.674;2023-03-13T01:08:33;12.88;;;4.47;;
72785;SDS011;60902;53.876;10.674;2023-03-13T01:08:44;13.05;;;4.65;;
72785;SDS011;60902;53.876;10.674;2023-03-13T01:08:56;13.10;;;4.90;;
72785;SDS011;60902;53.876;10.674;2023-03-13T01:09:10;14.20;;;4.93;;
72785;SDS011;60902;53.876;10.674;2023-03-13T01:09:23;13.15;;;4.72;;